sensor_id;sensor_type;location;lat;lon;timestamp;pressure;altitude;pressure_sealevel;temperature;humidity
70916;BME280;58557;50.982;-3.222;2023-01-25T00:01:22;103079.76;;;0.24;60.85
70916;BME280;58557;50.982;-3.222;2023-01-25T00:03:47;103076.98;;;-0.07;60.37
70916;BME280;58557;50.982;-3.222;2023-01-25T00:06:18;103074.65;;;-0.59;61.28
70916;BME280;58557;50.982;-3.222;2023-01-25T00:08:38;103075.77;;;-2.08;66.59
70916;BME280;58557;50.982;-3.222;2023-01-25T00:11:08;103073.46;;;-0.78;65.02
70916;BME280;58557;50.982;-3.222;2023-01-25T00:13:34;103070.02;;;-1.40;67.84
70916;BME280;58557;50.982;-3.222;2023-01-25T00:16:00;103065.66;;;1.22;60.23
70916;BME280;58557;50.982;-3.222;2023-01-25T00:18:20;103064.98;;;1.42;57.28
70916;BME280;58557;50.982;-3.222;2023-01-25T00:20:45;103061.39;;;2.52;56.78
70916;BME280;58557;50.982;-3.222;2023-01-25T00:23:11;103063.16;;;2.63;53.83
70916;BME280;58557;50.982;-3.222;2023-01-25T00:25:42;103062.90;;;2.83;52.66
70916;BME280;58557;50.982;-3.222;2023-01-25T00:28:02;103057.76;;;1.65;54.40
70916;BME280;58557;50.982;-3.222;2023-01-25T00:30:32;103058.32;;;1.79;52.56
70916;BME280;58557;50.982;-3.222;2023-01-25T00:32:57;103064.46;;;0.74;57.17
70916;BME280;58557;50.982;-3.222;2023-01-25T00:35:20;103061.59;;;1.81;55.06
70916;BME280;58557;50.982;-3.222;2023-01-25T00:37:54;103060.28;;;2.22;53.85
70916;BME280;58557;50.982;-3.222;2023-01-25T00:40:16;103057.39;;;2.03;51.98
70916;BME280;58557;50.982;-3.222;2023-01-25T00:42:35;103058.64;;;1.92;52.66
70916;BME280;58557;50.982;-3.222;2023-01-25T00:45:08;103053.27;;;1.48;55.44
70916;BME280;58557;50.982;-3.222;2023-01-25T00:47:26;103049.55;;;1.35;57.24
70916;BME280;58557;50.982;-3.222;2023-01-25T00:49:56;103050.04;;;-1.00;60.58
70916;BME280;58557;50.982;-3.222;2023-01-25T00:52:16;103045.74;;;-0.14;61.69
70916;BME280;58557;50.982;-3.222;2023-01-25T00:54:42;103041.74;;;-1.41;71.13
70916;BME280;58557;50.982;-3.222;2023-01-25T00:57:09;103040.26;;;-0.71;67.43
70916;BME280;58557;50.982;-3.222;2023-01-25T00:59:34;103041.40;;;-0.87;67.50
70916;BME280;58557;50.982;-3.222;2023-01-25T01:01:59;103044.43;;;-1.32;69.66
70916;BME280;58557;50.982;-3.222;2023-01-25T01:04:24;103045.86;;;0.80;64.07
70916;BME280;58557;50.982;-3.222;2023-01-25T01:06:54;103048.07;;;0.96;61.76
70916;BME280;58557;50.982;-3.222;2023-01-25T01:09:16;103050.86;;;0.06;65.12
70916;BME280;58557;50.982;-3.222;2023-01-25T01:11:41;103050.28;;;1.92;58.47
70916;BME280;58557;50.982;-3.222;2023-01-25T01:14:08;103053.96;;;0.40;61.39
70916;BME280;58557;50.982;-3.222;2023-01-25T01:16:31;103052.66;;;-0.15;66.35
70916;BME280;58557;50.982;-3.222;2023-01-25T01:18:56;103053.67;;;0.69;62.00
70916;BME280;58557;50.982;-3.222;2023-01-25T01:21:22;103044.63;;;2.74;59.19
70916;BME280;58557;50.982;-3.222;2023-01-25T01:23:47;103041.25;;;3.25;55.40
70916;BME280;58557;50.982;-3.222;2023-01-25T01:26:14;103042.17;;;2.07;56.73
70916;BME280;58557;50.982;-3.222;2023-01-25T01:28:38;103043.07;;;1.01;57.36
70916;BME280;58557;50.982;-3.222;2023-01-25T01:31:05;103041.89;;;1.56;58.50
70916;BME280;58557;50.982;-3.222;2023-01-25T01:33:28;103039.79;;;0.32;60.97
70916;BME280;58557;50.982;-3.222;2023-01-25T01:36:05;103041.49;;;-1.30;65.18
70916;BME280;58557;50.982;-3.222;2023-01-25T01:38:19;103046.79;;;-2.74;75.94
70916;BME280;58557;50.982;-3.222;2023-01-25T01:40:44;103048.61;;;-0.67;68.00
70916;BME280;58557;50.982;-3.222;2023-01-25T01:43:18;103050.32;;;-0.16;66.58
70916;BME280;58557;50.982;-3.222;2023-01-25T01:45:51;103049.06;;;-0.30;67.39
70916;BME280;58557;50.982;-3.222;2023-01-25T01:48:00;103051.73;;;0.46;62.88
70916;BME280;58557;50.982;-3.222;2023-01-25T01:50:26;103043.39;;;-0.13;63.59
70916;BME280;58557;50.982;-3.222;2023-01-25T01:52:56;103041.71;;;0.77;62.98
70916;BME280;58557;50.982;-3.222;2023-01-25T01:55:20;103035.64;;;1.43;59.24
70916;BME280;58557;50.982;-3.222;2023-01-25T01:57:45;103039.44;;;1.90;58.07
70916;BME280;58557;50.982;-3.222;2023-01-25T02:00:12;103038.25;;;1.44;57.58
70916;BME280;58557;50.982;-3.222;2023-01-25T02:02:33;103040.76;;;1.51;59.97
70916;BME280;58557;50.982;-3.222;2023-01-25T02:05:06;103040.21;;;1.26;59.81
70916;BME280;58557;50.982;-3.222;2023-01-25T02:07:29;103039.58;;;1.43;58.37
70916;BME280;58557;50.982;-3.222;2023-01-25T02:09:50;103037.24;;;1.94;57.93
70916;BME280;58557;50.982;-3.222;2023-01-25T02:12:21;103039.06;;;2.98;55.83
70916;BME280;58557;50.982;-3.222;2023-01-25T02:14:49;103045.33;;;0.61;59.41
70916;BME280;58557;50.982;-3.222;2023-01-25T02:17:05;103054.12;;;-0.07;66.33
70916;BME280;58557;50.982;-3.222;2023-01-25T02:19:41;103049.84;;;-0.56;67.94
70916;BME280;58557;50.982;-3.222;2023-01-25T02:21:57;103056.27;;;0.05;68.08
70916;BME280;58557;50.982;-3.222;2023-01-25T02:24:29;103058.83;;;0.96;65.07
70916;BME280;58557;50.982;-3.222;2023-01-25T02:26:48;103054.77;;;1.48;61.18
70916;BME280;58557;50.982;-3.222;2023-01-25T02:29:13;103057.07;;;-0.65;67.71
70916;BME280;58557;50.982;-3.222;2023-01-25T02:31:37;103055.06;;;2.14;61.49
70916;BME280;58557;50.982;-3.222;2023-01-25T02:34:03;103054.33;;;-0.09;66.64
70916;BME280;58557;50.982;-3.222;2023-01-25T02:36:34;103053.00;;;0.78;66.05
70916;BME280;58557;50.982;-3.222;2023-01-25T02:38:57;103054.50;;;0.79;62.75
70916;BME280;58557;50.982;-3.222;2023-01-25T02:41:24;103054.89;;;-0.25;67.19
70916;BME280;58557;50.982;-3.222;2023-01-25T02:43:46;103055.66;;;-1.11;70.53
70916;BME280;58557;50.982;-3.222;2023-01-25T02:46:14;103054.23;;;-0.08;67.84
70916;BME280;58557;50.982;-3.222;2023-01-25T02:48:40;103054.59;;;-2.07;78.94
70916;BME280;58557;50.982;-3.222;2023-01-25T02:51:07;103053.56;;;-2.33;84.78
70916;BME280;58557;50.982;-3.222;2023-01-25T02:53:27;103048.41;;;-1.00;78.62
70916;BME280;58557;50.982;-3.222;2023-01-25T02:55:57;103050.26;;;-1.14;74.08
70916;BME280;58557;50.982;-3.222;2023-01-25T02:58:23;103049.44;;;-1.05;76.01
70916;BME280;58557;50.982;-3.222;2023-01-25T03:00:43;103053.79;;;-1.86;78.57
70916;BME280;58557;50.982;-3.222;2023-01-25T03:03:09;103053.93;;;-2.15;82.18
70916;BME280;58557;50.982;-3.222;2023-01-25T03:05:39;103052.11;;;-1.93;82.41
70916;BME280;58557;50.982;-3.222;2023-01-25T03:08:00;103047.69;;;-2.97;87.26
70916;BME280;58557;50.982;-3.222;2023-01-25T03:10:26;103048.82;;;-1.64;82.98
70916;BME280;58557;50.982;-3.222;2023-01-25T03:12:51;103049.49;;;-2.67;84.09
70916;BME280;58557;50.982;-3.222;2023-01-25T03:15:21;103052.55;;;-1.89;84.92
70916;BME280;58557;50.982;-3.222;2023-01-25T03:17:42;103054.28;;;-1.72;85.96
70916;BME280;58557;50.982;-3.222;2023-01-25T03:20:08;103051.67;;;-3.02;88.47
70916;BME280;58557;50.982;-3.222;2023-01-25T03:22:32;103049.00;;;-2.43;92.03
70916;BME280;58557;50.982;-3.222;2023-01-25T03:24:57;103049.50;;;-2.10;89.69
70916;BME280;58557;50.982;-3.222;2023-01-25T03:27:28;103044.61;;;-1.15;82.84
70916;BME280;58557;50.982;-3.222;2023-01-25T03:29:53;103041.74;;;-1.52;84.41
70916;BME280;58557;50.982;-3.222;2023-01-25T03:32:19;103044.40;;;-1.26;80.15
70916;BME280;58557;50.982;-3.222;2023-01-25T03:34:39;103044.13;;;-1.10;79.76
70916;BME280;58557;50.982;-3.222;2023-01-25T03:37:04;103046.50;;;-0.52;78.52
70916;BME280;58557;50.982;-3.222;2023-01-25T03:39:30;103042.76;;;-1.34;84.18
70916;BME280;58557;50.982;-3.222;2023-01-25T03:42:00;103047.07;;;0.54;79.18
70916;BME280;58557;50.982;-3.222;2023-01-25T03:44:26;103045.33;;;-0.07;76.36
70916;BME280;58557;50.982;-3.222;2023-01-25T03:46:47;103042.73;;;1.71;70.98
70916;BME280;58557;50.982;-3.222;2023-01-25T03:49:17;103044.57;;;2.23;68.82
70916;BME280;58557;50.982;-3.222;2023-01-25T03:51:43;103045.46;;;0.94;70.12
70916;BME280;58557;50.982;-3.222;2023-01-25T03:54:04;103041.90;;;-0.43;76.21
70916;BME280;58557;50.982;-3.222;2023-01-25T03:56:30;103039.92;;;-0.15;77.63
70916;BME280;58557;50.982;-3.222;2023-01-25T03:58:54;103038.47;;;-1.01;76.84
70916;BME280;58557;50.982;-3.222;2023-01-25T04:01:20;103041.35;;;0.42;75.99
70916;BME280;58557;50.982;-3.222;2023-01-25T04:03:45;103042.23;;;0.96;73.25
70916;BME280;58557;50.982;-3.222;2023-01-25T04:06:16;103040.20;;;-0.20;79.46
70916;BME280;58557;50.982;-3.222;2023-01-25T04:08:37;103038.84;;;-0.71;79.58
70916;BME280;58557;50.982;-3.222;2023-01-25T04:11:05;103039.78;;;-0.34;78.83
70916;BME280;58557;50.982;-3.222;2023-01-25T04:13:28;103033.40;;;1.43;73.30
70916;BME280;58557;50.982;-3.222;2023-01-25T04:15:53;103038.40;;;0.91;74.04
70916;BME280;58557;50.982;-3.222;2023-01-25T04:18:19;103030.48;;;0.91;72.28
70916;BME280;58557;50.982;-3.222;2023-01-25T04:20:52;103031.03;;;0.80;69.67
70916;BME280;58557;50.982;-3.222;2023-01-25T04:23:10;103027.62;;;1.10;72.33
70916;BME280;58557;50.982;-3.222;2023-01-25T04:25:35;103026.71;;;0.47;73.43
70916;BME280;58557;50.982;-3.222;2023-01-25T04:28:03;103027.08;;;-0.11;72.69
70916;BME280;58557;50.982;-3.222;2023-01-25T04:30:32;103016.73;;;1.46;70.78
70916;BME280;58557;50.982;-3.222;2023-01-25T04:33:03;103015.23;;;1.01;72.33
70916;BME280;58557;50.982;-3.222;2023-01-25T04:35:18;103015.79;;;2.13;67.88
70916;BME280;58557;50.982;-3.222;2023-01-25T04:37:43;103017.40;;;1.13;70.51
70916;BME280;58557;50.982;-3.222;2023-01-25T04:40:09;103017.28;;;1.70;72.09
70916;BME280;58557;50.982;-3.222;2023-01-25T04:42:34;103013.39;;;2.13;68.06
70916;BME280;58557;50.982;-3.222;2023-01-25T04:45:05;103013.68;;;1.70;69.48
70916;BME280;58557;50.982;-3.222;2023-01-25T04:47:30;103006.99;;;2.64;67.79
70916;BME280;58557;50.982;-3.222;2023-01-25T04:49:50;103006.43;;;2.61;65.65
70916;BME280;58557;50.982;-3.222;2023-01-25T04:52:20;103008.38;;;3.34;64.51
70916;BME280;58557;50.982;-3.222;2023-01-25T04:54:46;103004.83;;;3.40;63.96
70916;BME280;58557;50.982;-3.222;2023-01-25T04:57:07;103002.21;;;3.32;64.42
70916;BME280;58557;50.982;-3.222;2023-01-25T04:59:33;103004.44;;;3.39;64.88
70916;BME280;58557;50.982;-3.222;2023-01-25T05:01:57;103000.41;;;3.20;63.60
70916;BME280;58557;50.982;-3.222;2023-01-25T05:04:22;103001.87;;;4.53;61.91
70916;BME280;58557;50.982;-3.222;2023-01-25T05:06:48;102997.73;;;4.67;60.72
70916;BME280;58557;50.982;-3.222;2023-01-25T05:09:13;102989.85;;;3.06;63.28
70916;BME280;58557;50.982;-3.222;2023-01-25T05:11:39;102989.21;;;3.35;63.02
70916;BME280;58557;50.982;-3.222;2023-01-25T05:14:04;102989.28;;;3.85;63.49
70916;BME280;58557;50.982;-3.222;2023-01-25T05:16:30;102987.83;;;2.75;66.50
70916;BME280;58557;50.982;-3.222;2023-01-25T05:19:00;102984.05;;;3.42;65.93
70916;BME280;58557;50.982;-3.222;2023-01-25T05:21:25;102980.65;;;3.33;65.43
70916;BME280;58557;50.982;-3.222;2023-01-25T05:23:46;102980.15;;;1.17;70.64
70916;BME280;58557;50.982;-3.222;2023-01-25T05:26:11;102974.59;;;0.52;73.28
70916;BME280;58557;50.982;-3.222;2023-01-25T05:28:41;102977.09;;;1.09;72.57
70916;BME280;58557;50.982;-3.222;2023-01-25T05:31:03;102977.22;;;0.60;77.28
70916;BME280;58557;50.982;-3.222;2023-01-25T05:33:28;102974.46;;;1.29;74.55
70916;BME280;58557;50.982;-3.222;2023-01-25T05:35:53;102977.54;;;0.36;77.49
70916;BME280;58557;50.982;-3.222;2023-01-25T05:38:20;102976.40;;;0.60;77.60
70916;BME280;58557;50.982;-3.222;2023-01-25T05:40:44;102974.34;;;0.52;78.34
70916;BME280;58557;50.982;-3.222;2023-01-25T05:43:09;102977.33;;;-0.51;81.65
70916;BME280;58557;50.982;-3.222;2023-01-25T05:45:40;102974.43;;;-0.21;83.03
70916;BME280;58557;50.982;-3.222;2023-01-25T05:48:00;102971.21;;;1.32;80.46
70916;BME280;58557;50.982;-3.222;2023-01-25T05:50:26;102974.89;;;2.06;74.43
70916;BME280;58557;50.982;-3.222;2023-01-25T05:52:52;102977.80;;;0.60;76.32
70916;BME280;58557;50.982;-3.222;2023-01-25T05:55:17;102979.38;;;0.12;77.66
70916;BME280;58557;50.982;-3.222;2023-01-25T05:57:42;102980.27;;;2.37;73.06
70916;BME280;58557;50.982;-3.222;2023-01-25T06:00:09;102979.01;;;2.57;69.61
70916;BME280;58557;50.982;-3.222;2023-01-25T06:02:33;102972.39;;;0.56;75.24
70916;BME280;58557;50.982;-3.222;2023-01-25T06:05:04;102979.96;;;0.49;78.15
70916;BME280;58557;50.982;-3.222;2023-01-25T06:07:24;102969.57;;;0.12;80.78
70916;BME280;58557;50.982;-3.222;2023-01-25T06:09:49;102964.17;;;-1.52;86.30
70916;BME280;58557;50.982;-3.222;2023-01-25T06:12:14;102964.97;;;-0.69;84.76
70916;BME280;58557;50.982;-3.222;2023-01-25T06:14:39;102968.76;;;-0.19;86.15
70916;BME280;58557;50.982;-3.222;2023-01-25T06:17:10;102961.81;;;-0.08;86.64
70916;BME280;58557;50.982;-3.222;2023-01-25T06:19:35;102964.11;;;0.88;82.20
70916;BME280;58557;50.982;-3.222;2023-01-25T06:22:00;102961.80;;;-0.59;83.83
70916;BME280;58557;50.982;-3.222;2023-01-25T06:24:26;102959.23;;;0.44;82.20
70916;BME280;58557;50.982;-3.222;2023-01-25T06:26:47;102954.60;;;0.78;77.93
70916;BME280;58557;50.982;-3.222;2023-01-25T06:29:17;102951.51;;;0.66;79.11
70916;BME280;58557;50.982;-3.222;2023-01-25T06:31:42;102948.12;;;1.46;74.94
70916;BME280;58557;50.982;-3.222;2023-01-25T06:34:03;102940.06;;;1.13;75.27
70916;BME280;58557;50.982;-3.222;2023-01-25T06:36:29;102934.81;;;1.16;76.44
70916;BME280;58557;50.982;-3.222;2023-01-25T06:38:54;102940.17;;;-0.99;83.47
70916;BME280;58557;50.982;-3.222;2023-01-25T06:41:20;102937.60;;;-0.58;84.28
70916;BME280;58557;50.982;-3.222;2023-01-25T06:43:45;102931.12;;;0.63;77.10
70916;BME280;58557;50.982;-3.222;2023-01-25T06:46:11;102923.47;;;0.46;80.35
70916;BME280;58557;50.982;-3.222;2023-01-25T06:48:36;102920.04;;;1.74;75.30
70916;BME280;58557;50.982;-3.222;2023-01-25T06:51:03;102916.31;;;3.03;68.50
70916;BME280;58557;50.982;-3.222;2023-01-25T06:53:28;102920.85;;;3.50;66.90
70916;BME280;58557;50.982;-3.222;2023-01-25T06:55:59;102917.57;;;3.45;69.41
70916;BME280;58557;50.982;-3.222;2023-01-25T06:58:19;102915.07;;;4.19;65.56
70916;BME280;58557;50.982;-3.222;2023-01-25T07:00:42;102910.65;;;2.94;68.64
70916;BME280;58557;50.982;-3.222;2023-01-25T07:03:08;102916.28;;;3.19;68.29
70916;BME280;58557;50.982;-3.222;2023-01-25T07:05:33;102917.98;;;3.31;68.33
70916;BME280;58557;50.982;-3.222;2023-01-25T07:07:59;102924.03;;;2.18;70.80
70916;BME280;58557;50.982;-3.222;2023-01-25T07:10:30;102918.77;;;2.16;70.88
70916;BME280;58557;50.982;-3.222;2023-01-25T07:12:52;102922.70;;;2.31;72.89
70916;BME280;58557;50.982;-3.222;2023-01-25T07:15:15;102924.24;;;2.36;72.65
70916;BME280;58557;50.982;-3.222;2023-01-25T07:17:41;102930.97;;;2.01;74.28
70916;BME280;58557;50.982;-3.222;2023-01-25T07:20:07;102932.90;;;1.30;75.41
70916;BME280;58557;50.982;-3.222;2023-01-25T07:22:33;102941.29;;;1.45;76.18
70916;BME280;58557;50.982;-3.222;2023-01-25T07:24:57;102952.56;;;0.69;82.79
70916;BME280;58557;50.982;-3.222;2023-01-25T07:27:23;102956.04;;;0.34;80.50
70916;BME280;58557;50.982;-3.222;2023-01-25T07:29:53;102950.42;;;0.91;81.47
70916;BME280;58557;50.982;-3.222;2023-01-25T07:32:14;102959.67;;;0.82;83.86
70916;BME280;58557;50.982;-3.222;2023-01-25T07:34:39;102966.73;;;0.40;86.12
70916;BME280;58557;50.982;-3.222;2023-01-25T07:37:06;102966.07;;;-0.08;84.48
70916;BME280;58557;50.982;-3.222;2023-01-25T07:39:35;102968.58;;;0.14;84.62
70916;BME280;58557;50.982;-3.222;2023-01-25T07:41:56;102960.30;;;1.07;80.93
70916;BME280;58557;50.982;-3.222;2023-01-25T07:44:26;102956.31;;;1.26;76.95
70916;BME280;58557;50.982;-3.222;2023-01-25T07:46:48;102952.31;;;2.40;72.26
70916;BME280;58557;50.982;-3.222;2023-01-25T07:49:12;102949.88;;;4.10;67.88
70916;BME280;58557;50.982;-3.222;2023-01-25T07:51:43;102946.44;;;5.09;62.91
70916;BME280;58557;50.982;-3.222;2023-01-25T07:54:04;102939.16;;;6.07;59.91
70916;BME280;58557;50.982;-3.222;2023-01-25T07:56:31;102936.38;;;6.51;58.67
70916;BME280;58557;50.982;-3.222;2023-01-25T07:58:57;102931.49;;;7.02;55.84
70916;BME280;58557;50.982;-3.222;2023-01-25T08:01:23;102927.02;;;7.39;56.51
70916;BME280;58557;50.982;-3.222;2023-01-25T08:03:47;102925.37;;;7.68;52.21
70916;BME280;58557;50.982;-3.222;2023-01-25T08:06:21;102926.28;;;6.38;55.59
70916;BME280;58557;50.982;-3.222;2023-01-25T08:08:42;102925.45;;;6.50;54.97
70916;BME280;58557;50.982;-3.222;2023-01-25T08:11:07;102921.89;;;5.51;55.06
70916;BME280;58557;50.982;-3.222;2023-01-25T08:13:28;102920.76;;;6.57;55.02
70916;BME280;58557;50.982;-3.222;2023-01-25T08:15:54;102915.88;;;7.26;53.17
70916;BME280;58557;50.982;-3.222;2023-01-25T08:18:24;102911.47;;;7.02;52.20
70916;BME280;58557;50.982;-3.222;2023-01-25T08:20:49;102920.93;;;3.08;67.56
70916;BME280;58557;50.982;-3.222;2023-01-25T08:23:15;102916.00;;;2.44;68.26
70916;BME280;58557;50.982;-3.222;2023-01-25T08:25:35;102916.63;;;1.83;70.87
70916;BME280;58557;50.982;-3.222;2023-01-25T08:28:05;102913.48;;;1.91;75.55
70916;BME280;58557;50.982;-3.222;2023-01-25T08:30:25;102909.34;;;2.53;71.20
70916;BME280;58557;50.982;-3.222;2023-01-25T08:32:51;102904.89;;;0.64;80.99
70916;BME280;58557;50.982;-3.222;2023-01-25T08:35:16;102901.97;;;1.04;78.07
70916;BME280;58557;50.982;-3.222;2023-01-25T08:37:42;102900.24;;;0.91;78.11
70916;BME280;58557;50.982;-3.222;2023-01-25T08:40:08;102899.74;;;0.97;82.64
70916;BME280;58557;50.982;-3.222;2023-01-25T08:42:32;102890.98;;;0.79;81.33
70916;BME280;58557;50.982;-3.222;2023-01-25T08:45:04;102888.64;;;1.69;80.16
70916;BME280;58557;50.982;-3.222;2023-01-25T08:47:24;102883.66;;;2.46;72.79
70916;BME280;58557;50.982;-3.222;2023-01-25T08:49:49;102881.73;;;3.12;73.37
70916;BME280;58557;50.982;-3.222;2023-01-25T08:52:15;102881.03;;;2.03;76.45
70916;BME280;58557;50.982;-3.222;2023-01-25T08:54:40;102876.90;;;1.31;80.03
70916;BME280;58557;50.982;-3.222;2023-01-25T08:57:10;102873.52;;;3.12;75.47
70916;BME280;58557;50.982;-3.222;2023-01-25T08:59:34;102876.36;;;1.43;76.40
70916;BME280;58557;50.982;-3.222;2023-01-25T09:02:01;102871.41;;;2.18;74.00
70916;BME280;58557;50.982;-3.222;2023-01-25T09:04:22;102871.11;;;3.64;69.77
70916;BME280;58557;50.982;-3.222;2023-01-25T09:06:49;102865.18;;;4.50;66.84
70916;BME280;58557;50.982;-3.222;2023-01-25T09:09:13;102864.99;;;3.76;68.49
70916;BME280;58557;50.982;-3.222;2023-01-25T09:11:44;102861.94;;;4.68;65.53
70916;BME280;58557;50.982;-3.222;2023-01-25T09:14:09;102864.71;;;3.20;69.36
70916;BME280;58557;50.982;-3.222;2023-01-25T09:16:30;102862.92;;;3.48;71.41
70916;BME280;58557;50.982;-3.222;2023-01-25T09:18:56;102853.82;;;4.23;67.53
70916;BME280;58557;50.982;-3.222;2023-01-25T09:21:26;102851.57;;;4.04;69.04
70916;BME280;58557;50.982;-3.222;2023-01-25T09:23:52;102848.70;;;3.53;69.54
70916;BME280;58557;50.982;-3.222;2023-01-25T09:26:12;102837.43;;;3.70;69.32
70916;BME280;58557;50.982;-3.222;2023-01-25T09:28:37;102829.28;;;2.67;72.53
70916;BME280;58557;50.982;-3.222;2023-01-25T09:31:08;102823.32;;;5.37;64.88
70916;BME280;58557;50.982;-3.222;2023-01-25T09:33:31;102814.54;;;6.34;61.54
70916;BME280;58557;50.982;-3.222;2023-01-25T09:35:58;102806.23;;;7.49;56.34
70916;BME280;58557;50.982;-3.222;2023-01-25T09:38:23;102807.15;;;7.55;55.07
70916;BME280;58557;50.982;-3.222;2023-01-25T09:40:53;102800.73;;;7.52;54.62
70916;BME280;58557;50.982;-3.222;2023-01-25T09:43:16;102798.67;;;5.67;59.38
70916;BME280;58557;50.982;-3.222;2023-01-25T09:45:35;102800.20;;;5.60;57.83
70916;BME280;58557;50.982;-3.222;2023-01-25T09:48:12;102797.69;;;5.46;58.88
70916;BME280;58557;50.982;-3.222;2023-01-25T09:50:35;102801.10;;;1.35;75.66
70916;BME280;58557;50.982;-3.222;2023-01-25T09:55:27;102797.12;;;2.53;75.58
70916;BME280;58557;50.982;-3.222;2023-01-25T09:57:44;102794.95;;;2.93;74.30
70916;BME280;58557;50.982;-3.222;2023-01-25T10:00:15;102792.94;;;2.02;77.71
70916;BME280;58557;50.982;-3.222;2023-01-25T10:02:39;102799.34;;;2.17;78.02
70916;BME280;58557;50.982;-3.222;2023-01-25T10:05:04;102801.16;;;0.55;88.68
70916;BME280;58557;50.982;-3.222;2023-01-25T10:07:28;102799.77;;;1.66;85.99
70916;BME280;58557;50.982;-3.222;2023-01-25T10:09:54;102792.76;;;1.75;84.20
70916;BME280;58557;50.982;-3.222;2023-01-25T10:12:18;102787.97;;;1.78;83.15
70916;BME280;58557;50.982;-3.222;2023-01-25T10:14:45;102782.00;;;2.71;82.16
70916;BME280;58557;50.982;-3.222;2023-01-25T10:17:10;102782.84;;;3.37;79.23
70916;BME280;58557;50.982;-3.222;2023-01-25T10:19:42;102780.67;;;2.66;79.73
70916;BME280;58557;50.982;-3.222;2023-01-25T10:22:00;102777.71;;;2.61;80.65
70916;BME280;58557;50.982;-3.222;2023-01-25T10:24:30;102769.52;;;3.04;78.72
70916;BME280;58557;50.982;-3.222;2023-01-25T10:26:51;102760.49;;;4.51;73.50
70916;BME280;58557;50.982;-3.222;2023-01-25T10:29:18;102751.50;;;3.85;75.60
70916;BME280;58557;50.982;-3.222;2023-01-25T10:31:46;102740.73;;;3.66;75.95
70916;BME280;58557;50.982;-3.222;2023-01-25T10:34:15;102732.99;;;3.76;76.31
70916;BME280;58557;50.982;-3.222;2023-01-25T10:36:29;102735.00;;;4.44;74.46
70916;BME280;58557;50.982;-3.222;2023-01-25T10:38:58;102738.43;;;4.17;75.82
70916;BME280;58557;50.982;-3.222;2023-01-25T10:41:22;102741.44;;;4.64;74.35
70916;BME280;58557;50.982;-3.222;2023-01-25T10:43:44;102733.33;;;5.12;73.03
70916;BME280;58557;50.982;-3.222;2023-01-25T10:46:20;102729.47;;;6.20;69.87
70916;BME280;58557;50.982;-3.222;2023-01-25T10:48:35;102731.29;;;4.71;70.36
70916;BME280;58557;50.982;-3.222;2023-01-25T10:51:01;102726.72;;;6.15;67.20
70916;BME280;58557;50.982;-3.222;2023-01-25T10:53:29;102728.51;;;4.08;71.01
70916;BME280;58557;50.982;-3.222;2023-01-25T10:56:02;102730.50;;;5.04;71.14
70916;BME280;58557;50.982;-3.222;2023-01-25T11:00:49;102727.00;;;4.22;72.24
70916;BME280;58557;50.982;-3.222;2023-01-25T11:03:18;102717.59;;;4.77;70.40
70916;BME280;58557;50.982;-3.222;2023-01-25T11:05:38;102709.46;;;5.60;68.26
70916;BME280;58557;50.982;-3.222;2023-01-25T11:08:16;102703.94;;;5.88;66.55
70916;BME280;58557;50.982;-3.222;2023-01-25T11:10:32;102691.85;;;5.53;67.26
70916;BME280;58557;50.982;-3.222;2023-01-25T11:15:23;102684.61;;;5.52;68.57
70916;BME280;58557;50.982;-3.222;2023-01-25T11:17:41;102692.45;;;4.39;73.96
70916;BME280;58557;50.982;-3.222;2023-01-25T11:20:20;102693.31;;;4.99;69.29
70916;BME280;58557;50.982;-3.222;2023-01-25T11:22:33;102709.63;;;4.57;72.67
70916;BME280;58557;50.982;-3.222;2023-01-25T11:27:25;102720.95;;;3.08;78.21
70916;BME280;58557;50.982;-3.222;2023-01-25T11:32:16;102713.75;;;4.22;77.24
70916;BME280;58557;50.982;-3.222;2023-01-25T11:34:39;102714.69;;;3.32;76.90
70916;BME280;58557;50.982;-3.222;2023-01-25T11:37:27;102704.78;;;4.69;75.47
70916;BME280;58557;50.982;-3.222;2023-01-25T11:39:42;102699.97;;;5.60;71.02
70916;BME280;58557;50.982;-3.222;2023-01-25T11:42:04;102699.81;;;6.91;65.25
70916;BME280;58557;50.982;-3.222;2023-01-25T11:44:48;102695.50;;;7.47;62.58
70916;BME280;58557;50.982;-3.222;2023-01-25T11:46:55;102693.39;;;6.36;64.66
70916;BME280;58557;50.982;-3.222;2023-01-25T11:49:18;102691.86;;;7.53;62.16
70916;BME280;58557;50.982;-3.222;2023-01-25T11:51:42;102688.41;;;6.96;64.34
70916;BME280;58557;50.982;-3.222;2023-01-25T11:56:40;102687.14;;;5.68;67.45
70916;BME280;58557;50.982;-3.222;2023-01-25T11:59:03;102686.31;;;6.45;66.28
70916;BME280;58557;50.982;-3.222;2023-01-25T12:01:24;102676.25;;;7.16;65.11
70916;BME280;58557;50.982;-3.222;2023-01-25T12:04:03;102671.67;;;6.87;63.90
70916;BME280;58557;50.982;-3.222;2023-01-25T12:06:14;102674.13;;;5.82;67.68
70916;BME280;58557;50.982;-3.222;2023-01-25T12:08:49;102684.04;;;6.81;66.05
70916;BME280;58557;50.982;-3.222;2023-01-25T12:11:07;102668.58;;;5.75;69.03
70916;BME280;58557;50.982;-3.222;2023-01-25T12:13:32;102670.11;;;6.34;69.42
70916;BME280;58557;50.982;-3.222;2023-01-25T12:21:01;102697.70;;;7.12;66.15
70916;BME280;58557;50.982;-3.222;2023-01-25T12:23:21;102692.84;;;7.36;64.28
70916;BME280;58557;50.982;-3.222;2023-01-25T12:25:40;102686.59;;;7.88;63.87
70916;BME280;58557;50.982;-3.222;2023-01-25T12:28:09;102683.63;;;6.31;65.97
70916;BME280;58557;50.982;-3.222;2023-01-25T12:30:29;102667.40;;;8.64;61.54
70916;BME280;58557;50.982;-3.222;2023-01-25T12:32:53;102645.31;;;8.62;61.16
70916;BME280;58557;50.982;-3.222;2023-01-25T12:35:23;102637.87;;;9.28;61.18
70916;BME280;58557;50.982;-3.222;2023-01-25T12:37:45;102645.14;;;7.34;65.11
70916;BME280;58557;50.982;-3.222;2023-01-25T12:40:10;102649.81;;;7.11;68.15
70916;BME280;58557;50.982;-3.222;2023-01-25T12:42:33;102645.02;;;7.58;66.24
70916;BME280;58557;50.982;-3.222;2023-01-25T12:44:59;102639.58;;;7.64;64.94
70916;BME280;58557;50.982;-3.222;2023-01-25T12:47:31;102636.28;;;8.35;64.41
70916;BME280;58557;50.982;-3.222;2023-01-25T12:49:51;102632.75;;;8.41;63.11
70916;BME280;58557;50.982;-3.222;2023-01-25T12:52:21;102633.46;;;8.27;62.95
70916;BME280;58557;50.982;-3.222;2023-01-25T12:54:38;102632.92;;;7.92;63.87
70916;BME280;58557;50.982;-3.222;2023-01-25T12:57:13;102634.04;;;8.28;66.17